Time;durP1;ratioP1;P1;durP2;ratioP2;P2;SDS_P1;SDS_P2;PMS_P1;PMS_P2;Temp;Humidity;BMP_temperature;BMP_pressure;BME280_temperature;BME280_humidity;BME280_pressure;Samples;Min_cycle;Max_cycle;Signal;HPM_P1;HPM_P2
2022/11/05 00:10:48;;;;;;;7.28;2.78;;;;;;;;;;4988522;28;20402;-64
2022/11/05 00:19:08;;;;;;;7.18;2.55;;;;;;;;;;4971156;28;20519;-64
2022/11/05 00:27:16;;;;;;;5.72;2.55;;;;;;;;;;4971170;28;20042;-65
2022/11/05 00:29:46;;;;;;;5.20;2.70;;;;;;;;;;4971242;28;20438;-63
2022/11/05 00:32:16;;;;;;;9.52;2.85;;;;;;;;;;4951613;29;20051;-64
2022/11/05 00:34:46;;;;;;;8.95;2.60;;;;;;;;;;4937901;29;20063;-64
2022/11/05 00:37:16;;;;;;;9.10;3.03;;;;;;;;;;4932581;29;20104;-65
2022/11/05 00:39:46;;;;;;;6.22;2.30;;;;;;;;;;4901187;29;20412;-65
2022/11/05 00:45:06;;;;;;;9.10;2.65;;;;;;;;;;4951547;28;20047;-65
2022/11/05 00:50:27;;;;;;;8.63;2.65;;;;;;;;;;4986013;28;20049;-66
2022/11/05 00:52:59;;;;;;;12.07;2.75;;;;;;;;;;5049694;28;20075;-65
2022/11/05 00:55:39;;;;;;;5.75;2.58;;;;;;;;;;5050522;28;20053;-66
2022/11/05 00:58:18;;;;;;;6.95;2.28;;;;;;;;;;5036071;28;20071;-65
2022/11/05 01:00:54;;;;;;;5.40;2.65;;;;;;;;;;5036170;28;20063;-64
2022/11/05 01:03:27;;;;;;;9.75;2.30;;;;;;;;;;5036395;28;20388;-65
2022/11/05 01:06:05;;;;;;;15.27;2.72;;;;;;;;;;5049379;28;20053;-65
2022/11/05 01:08:36;;;;;;;12.15;3.15;;;;;;;;;;5049361;28;20393;-65
2022/11/05 01:11:32;;;;;;;12.45;3.40;;;;;;;;;;5069284;28;20079;-64
2022/11/05 01:14:11;;;;;;;10.57;3.65;;;;;;;;;;5069338;28;20415;-65
2022/11/05 01:16:42;;;;;;;11.23;3.25;;;;;;;;;;5069370;28;20049;-64
2022/11/05 01:19:12;;;;;;;9.25;3.22;;;;;;;;;;5048795;28;20053;-65
2022/11/05 01:21:43;;;;;;;9.57;2.92;;;;;;;;;;5049152;28;20061;-64
2022/11/05 01:24:13;;;;;;;10.82;3.33;;;;;;;;;;5049062;28;20061;-64
2022/11/05 01:26:43;;;;;;;9.73;3.45;;;;;;;;;;5049246;28;20059;-65
2022/11/05 01:29:13;;;;;;;11.73;3.63;;;;;;;;;;5049184;28;20076;-64
2022/11/05 01:31:43;;;;;;;8.23;3.50;;;;;;;;;;5049326;28;20072;-65
2022/11/05 01:34:13;;;;;;;11.43;3.85;;;;;;;;;;5048979;28;20076;-65
2022/11/05 01:36:43;;;;;;;11.98;4.03;;;;;;;;;;4999873;28;20080;-64
2022/11/05 01:39:13;;;;;;;14.18;4.03;;;;;;;;;;5048976;28;20048;-66
2022/11/05 01:41:43;;;;;;;11.60;3.60;;;;;;;;;;5033062;28;20523;-64
2022/11/05 01:44:47;;;;;;;8.65;3.38;;;;;;;;;;5080584;28;20087;-65
2022/11/05 01:47:41;;;;;;;9.07;3.70;;;;;;;;;;5091705;28;20048;-64
2022/11/05 01:50:28;;;;;;;10.57;3.10;;;;;;;;;;5076624;28;20059;-65
2022/11/05 01:53:22;;;;;;;10.88;3.10;;;;;;;;;;5093147;28;20039;-64
2022/11/05 01:56:03;;;;;;;15.57;3.90;;;;;;;;;;5093444;28;20040;-64
2022/11/05 01:58:39;;;;;;;13.30;3.88;;;;;;;;;;5095635;28;20054;-64
2022/11/05 02:01:12;;;;;;;14.75;3.70;;;;;;;;;;5095434;28;20051;-64
2022/11/05 02:03:44;;;;;;;8.88;3.13;;;;;;;;;;5095603;28;20044;-65
2022/11/05 02:06:16;;;;;;;12.93;4.03;;;;;;;;;;5095315;28;20043;-64
2022/11/05 02:09:09;;;;;;;11.30;2.38;;;;;;;;;;5059908;28;20051;-64
2022/11/05 02:11:39;;;;;;;6.10;2.40;;;;;;;;;;5059756;28;20075;-64
2022/11/05 02:14:09;;;;;;;6.18;2.15;;;;;;;;;;5095444;28;20048;-67
2022/11/05 02:16:42;;;;;;;8.20;2.97;;;;;;;;;;5095330;28;20048;-65
2022/11/05 02:19:31;;;;;;;9.73;2.47;;;;;;;;;;5061316;28;20056;-65
2022/11/05 02:22:46;;;;;;;9.30;3.80;;;;;;;;;;5115327;28;20488;-65
2022/11/05 02:25:16;;;;;;;7.80;2.63;;;;;;;;;;5115166;28;20503;-65
2022/11/05 02:28:14;;;;;;;7.85;2.90;;;;;;;;;;5115369;28;20082;-66
2022/11/05 02:30:59;;;;;;;8.32;3.17;;;;;;;;;;5115429;28;20054;-65
2022/11/05 02:33:34;;;;;;;9.25;2.92;;;;;;;;;;5045796;28;20539;-65
2022/11/05 02:36:31;;;;;;;6.88;3.15;;;;;;;;;;5097464;28;20035;-65
2022/11/05 02:39:26;;;;;;;6.35;2.58;;;;;;;;;;5071900;28;20596;-65
2022/11/05 02:42:10;;;;;;;7.60;3.20;;;;;;;;;;5071946;28;20052;-65
2022/11/05 02:45:09;;;;;;;7.68;2.30;;;;;;;;;;5072003;28;20496;-65
2022/11/05 02:47:43;;;;;;;16.90;3.42;;;;;;;;;;5072024;28;20055;-65
2022/11/05 02:50:24;;;;;;;9.95;3.03;;;;;;;;;;5071928;28;20052;-65
2022/11/05 02:53:32;;;;;;;7.95;3.25;;;;;;;;;;5071929;28;20044;-66
2022/11/05 02:56:08;;;;;;;8.13;2.97;;;;;;;;;;5031659;28;20049;-66
2022/11/05 02:58:39;;;;;;;11.75;2.95;;;;;;;;;;5031347;28;20413;-66
2022/11/05 03:01:13;;;;;;;9.13;3.00;;;;;;;;;;5015151;28;20056;-66
2022/11/05 03:03:47;;;;;;;8.93;2.90;;;;;;;;;;4961490;28;20434;-66
2022/11/05 03:07:08;;;;;;;11.25;3.58;;;;;;;;;;4992282;28;20541;-65
2022/11/05 03:09:47;;;;;;;8.15;3.28;;;;;;;;;;4950167;28;20052;-66
2022/11/05 03:12:46;;;;;;;8.90;3.67;;;;;;;;;;4934103;29;20059;-66
2022/11/05 03:15:36;;;;;;;7.93;3.28;;;;;;;;;;4934269;29;20714;-66
2022/11/05 03:18:29;;;;;;;8.43;2.90;;;;;;;;;;4940622;28;20419;-65
2022/11/05 03:21:04;;;;;;;6.85;3.08;;;;;;;;;;4972552;28;20572;-66
2022/11/05 03:24:15;;;;;;;8.55;3.33;;;;;;;;;;4972696;28;20047;-66
2022/11/05 03:27:04;;;;;;;7.53;3.20;;;;;;;;;;4908156;29;20067;-65
2022/11/05 03:29:52;;;;;;;9.70;3.35;;;;;;;;;;4934147;29;20052;-66
2022/11/05 03:32:25;;;;;;;9.43;3.65;;;;;;;;;;4918083;29;20059;-66
2022/11/05 03:35:07;;;;;;;;;;;;;;;;;;4915104;29;20508;-66
2022/11/05 03:37:41;;;;;;;7.82;3.13;;;;;;;;;;4914928;29;19930;-66
2022/11/05 03:40:13;;;;;;;7.47;2.85;;;;;;;;;;4930777;28;20055;-66
2022/11/05 03:42:48;;;;;;;8.32;2.90;;;;;;;;;;4975374;28;20054;-66
2022/11/05 03:45:25;;;;;;;7.25;3.08;;;;;;;;;;4975264;28;20050;-65
2022/11/05 03:47:59;;;;;;;10.68;2.72;;;;;;;;;;4991820;28;20046;-66
2022/11/05 03:50:33;;;;;;;9.27;2.83;;;;;;;;;;4991749;28;20101;-66
2022/11/05 03:53:16;;;;;;;8.38;3.50;;;;;;;;;;4991693;28;20070;-66
2022/11/05 03:56:04;;;;;;;8.85;2.95;;;;;;;;;;4991397;28;20053;-66
2022/11/05 03:58:39;;;;;;;9.88;3.92;;;;;;;;;;4943368;28;20460;-66
2022/11/05 04:01:11;;;;;;;11.43;3.63;;;;;;;;;;4952237;29;20055;-66
2022/11/05 04:03:41;;;;;;;10.18;3.38;;;;;;;;;;4978629;28;20053;-66
2022/11/05 04:14:38;;;;;;;8.38;3.05;;;;;;;;;;5070207;28;20044;-66
2022/11/05 04:17:08;;;;;;;13.20;3.53;;;;;;;;;;5070226;28;20040;-66
2022/11/05 04:25:21;;;;;;;11.05;3.65;;;;;;;;;;5070017;28;20091;-66
2022/11/05 04:27:52;;;;;;;8.68;2.88;;;;;;;;;;5070034;28;20044;-66
2022/11/05 04:30:22;;;;;;;12.30;3.13;;;;;;;;;;5070077;28;20516;-66
2022/11/05 04:33:10;;;;;;;6.70;3.40;;;;;;;;;;5069900;28;20056;-66
2022/11/05 04:35:45;;;;;;;7.40;3.05;;;;;;;;;;5070027;28;20059;-66
2022/11/05 04:38:19;;;;;;;10.82;3.50;;;;;;;;;;5044458;28;20189;-66
2022/11/05 04:40:50;;;;;;;9.82;3.40;;;;;;;;;;5092581;28;20048;-66
2022/11/05 04:43:20;;;;;;;6.05;2.78;;;;;;;;;;5092377;28;20051;-66
2022/11/05 04:45:51;;;;;;;9.05;3.10;;;;;;;;;;5092261;28;20504;-66
2022/11/05 04:48:21;;;;;;;8.02;3.08;;;;;;;;;;5092418;28;20036;-66
2022/11/05 04:50:51;;;;;;;9.02;3.15;;;;;;;;;;5069470;28;20507;-66
2022/11/05 04:53:21;;;;;;;7.25;3.50;;;;;;;;;;5036182;28;20052;-65
2022/11/05 04:55:52;;;;;;;9.45;3.25;;;;;;;;;;5036280;28;20785;-66
2022/11/05 04:58:22;;;;;;;10.52;3.53;;;;;;;;;;5069417;28;20048;-66
2022/11/05 05:00:52;;;;;;;7.60;3.00;;;;;;;;;;5029518;28;20073;-66
2022/11/05 05:03:22;;;;;;;9.70;3.28;;;;;;;;;;5029528;28;20060;-66
2022/11/05 05:05:52;;;;;;;6.78;3.25;;;;;;;;;;5013079;28;20057;-66
2022/11/05 05:08:28;;;;;;;6.80;2.78;;;;;;;;;;5029513;28;20052;-66
2022/11/05 05:11:06;;;;;;;9.35;3.13;;;;;;;;;;4980060;28;20413;-66
2022/11/05 05:13:37;;;;;;;8.07;2.75;;;;;;;;;;5029536;28;20425;-66
2022/11/05 05:16:10;;;;;;;9.23;3.05;;;;;;;;;;5029572;28;20058;-66
2022/11/05 05:18:40;;;;;;;7.07;3.17;;;;;;;;;;4980233;28;20072;-66
2022/11/05 05:24:15;;;;;;;9.80;3.38;;;;;;;;;;5029359;28;20049;-66
2022/11/05 05:26:50;;;;;;;7.82;3.40;;;;;;;;;;5029212;28;20041;-66
2022/11/05 05:29:20;;;;;;;6.90;3.08;;;;;;;;;;5062979;28;20508;-66
2022/11/05 05:31:50;;;;;;;9.63;3.17;;;;;;;;;;5068855;28;20068;-66
2022/11/05 05:34:20;;;;;;;9.20;3.30;;;;;;;;;;5069225;28;20055;-66
2022/11/05 05:36:50;;;;;;;7.38;3.05;;;;;;;;;;5069043;28;20148;-66
2022/11/05 05:39:20;;;;;;;10.18;3.25;;;;;;;;;;5049861;28;20059;-66
2022/11/05 05:41:50;;;;;;;10.70;3.85;;;;;;;;;;5091634;28;20055;-66
2022/11/05 05:44:20;;;;;;;9.90;3.58;;;;;;;;;;5056002;28;20052;-66
2022/11/05 05:46:53;;;;;;;9.45;3.28;;;;;;;;;;5091695;28;20039;-66
2022/11/05 05:49:24;;;;;;;7.22;3.25;;;;;;;;;;5091716;28;20044;-66
2022/11/05 05:51:55;;;;;;;11.07;3.50;;;;;;;;;;5091513;28;20040;-66
2022/11/05 05:54:25;;;;;;;6.55;3.25;;;;;;;;;;5072758;28;20067;-66
2022/11/05 05:57:02;;;;;;;6.10;3.15;;;;;;;;;;5068706;28;20052;-66
2022/11/05 05:59:32;;;;;;;8.90;3.50;;;;;;;;;;5068982;28;20056;-66
2022/11/05 06:02:02;;;;;;;6.82;3.03;;;;;;;;;;5052372;28;20401;-66
2022/11/05 06:04:32;;;;;;;8.40;3.17;;;;;;;;;;5068660;28;20515;-66
2022/11/05 06:07:02;;;;;;;6.80;3.05;;;;;;;;;;5019016;28;20059;-66
2022/11/05 06:09:32;;;;;;;7.45;3.47;;;;;;;;;;5035427;28;20508;-66
2022/11/05 06:12:02;;;;;;;6.90;3.00;;;;;;;;;;5068655;28;20052;-66
2022/11/05 06:14:32;;;;;;;6.38;2.88;;;;;;;;;;5052014;28;20057;-67
2022/11/05 06:17:02;;;;;;;7.38;3.17;;;;;;;;;;5068613;28;20056;-66
2022/11/05 06:19:32;;;;;;;6.50;3.03;;;;;;;;;;5068212;28;20056;-66
2022/11/05 06:22:02;;;;;;;10.68;3.47;;;;;;;;;;5035282;28;20067;-66
2022/11/05 06:24:32;;;;;;;7.75;3.33;;;;;;;;;;5068710;28;20064;-66
2022/11/05 06:27:02;;;;;;;8.20;3.25;;;;;;;;;;5068651;28;20044;-66
2022/11/05 06:29:32;;;;;;;8.07;3.30;;;;;;;;;;5068728;28;20060;-66
2022/11/05 06:32:02;;;;;;;5.28;2.88;;;;;;;;;;5068803;28;20056;-66
2022/11/05 06:34:32;;;;;;;7.45;2.95;;;;;;;;;;5037464;28;20511;-66
2022/11/05 06:37:02;;;;;;;7.57;3.00;;;;;;;;;;5040870;28;20047;-66
2022/11/05 06:39:32;;;;;;;8.40;3.70;;;;;;;;;;5078887;28;20047;-66
2022/11/05 06:42:02;;;;;;;9.15;3.35;;;;;;;;;;5104897;28;20117;-66
2022/11/05 06:44:46;;;;;;;9.98;3.35;;;;;;;;;;5059208;28;20392;-66
2022/11/05 06:47:18;;;;;;;6.88;3.33;;;;;;;;;;5094476;28;20047;-66
2022/11/05 06:49:48;;;;;;;7.53;3.05;;;;;;;;;;5093691;28;20047;-66
2022/11/05 06:52:18;;;;;;;8.23;3.22;;;;;;;;;;5094684;28;20507;-66
2022/11/05 06:54:48;;;;;;;8.95;3.60;;;;;;;;;;5094538;28;20044;-66
2022/11/05 06:57:18;;;;;;;9.65;4.05;;;;;;;;;;5058764;28;20052;-66
2022/11/05 06:59:48;;;;;;;6.53;3.03;;;;;;;;;;5094417;28;20399;-66
2022/11/05 07:02:23;;;;;;;9.68;3.58;;;;;;;;;;5071621;28;20056;-66
2022/11/05 07:04:53;;;;;;;7.55;3.10;;;;;;;;;;5038381;28;20492;-66
2022/11/05 07:07:23;;;;;;;9.75;3.60;;;;;;;;;;5054970;28;20520;-66
2022/11/05 07:09:53;;;;;;;6.20;3.15;;;;;;;;;;5047797;28;20053;-66
2022/11/05 07:12:23;;;;;;;8.02;3.38;;;;;;;;;;5031660;28;20072;-66
2022/11/05 07:14:53;;;;;;;10.40;3.47;;;;;;;;;;5031598;28;20080;-66
2022/11/05 07:17:23;;;;;;;9.57;3.17;;;;;;;;;;5031599;28;20037;-66
2022/11/05 07:19:53;;;;;;;11.25;3.38;;;;;;;;;;5038659;28;20489;-66
2022/11/05 07:22:23;;;;;;;7.93;2.95;;;;;;;;;;5051319;28;20061;-66
2022/11/05 07:24:53;;;;;;;9.68;3.53;;;;;;;;;;5034539;28;20793;-66
2022/11/05 07:27:23;;;;;;;8.02;3.20;;;;;;;;;;5030853;28;20038;-66
2022/11/05 07:29:53;;;;;;;11.40;3.50;;;;;;;;;;4998285;28;20053;-66
2022/11/05 07:32:23;;;;;;;10.68;3.65;;;;;;;;;;4998402;28;20430;-66
2022/11/05 07:34:53;;;;;;;9.90;3.45;;;;;;;;;;5031253;28;20068;-66
2022/11/05 07:37:23;;;;;;;11.23;3.33;;;;;;;;;;4998309;28;20057;-66
2022/11/05 07:39:53;;;;;;;10.10;3.17;;;;;;;;;;5039809;28;20063;-66
2022/11/05 07:42:23;;;;;;;10.35;3.05;;;;;;;;;;5051122;28;20049;-66
2022/11/05 07:44:53;;;;;;;6.55;3.20;;;;;;;;;;5050624;28;20057;-66
2022/11/05 07:47:22;;;;;;;7.90;3.25;;;;;;;;;;5068735;28;20618;-66
2022/11/05 07:49:52;;;;;;;7.30;3.25;;;;;;;;;;5091068;28;20095;-66
2022/11/05 07:52:22;;;;;;;9.82;3.00;;;;;;;;;;5091026;28;20585;-66
2022/11/05 07:54:52;;;;;;;9.50;3.55;;;;;;;;;;5073965;28;20059;-66
2022/11/05 07:57:22;;;;;;;6.93;3.17;;;;;;;;;;5091206;28;20159;-66
2022/11/05 07:59:52;;;;;;;8.63;3.63;;;;;;;;;;5090756;28;20044;-66
2022/11/05 08:02:22;;;;;;;8.60;3.85;;;;;;;;;;5074406;28;20063;-66
2022/11/05 08:04:52;;;;;;;5.45;2.53;;;;;;;;;;5050268;28;20058;-66
2022/11/05 08:07:22;;;;;;;6.75;3.28;;;;;;;;;;5061092;28;20066;-66
2022/11/05 08:09:52;;;;;;;8.70;2.90;;;;;;;;;;5113581;28;20391;-66
2022/11/05 08:12:22;;;;;;;7.03;2.83;;;;;;;;;;5113322;28;20050;-66
2022/11/05 08:14:52;;;;;;;6.72;2.83;;;;;;;;;;5060741;28;20446;-66
2022/11/05 08:17:22;;;;;;;6.80;3.00;;;;;;;;;;5077330;28;20063;-66
2022/11/05 08:19:52;;;;;;;6.95;3.33;;;;;;;;;;5113308;28;20056;-66
2022/11/05 08:22:22;;;;;;;6.47;2.90;;;;;;;;;;5113473;28;20398;-66
2022/11/05 08:24:52;;;;;;;8.35;2.63;;;;;;;;;;5077075;28;20056;-66
2022/11/05 08:27:22;;;;;;;6.95;2.72;;;;;;;;;;5036489;28;20052;-66
2022/11/05 08:29:52;;;;;;;8.25;3.08;;;;;;;;;;5053317;28;20064;-66
2022/11/05 08:32:22;;;;;;;6.68;2.72;;;;;;;;;;5069823;28;20560;-66
2022/11/05 08:34:52;;;;;;;7.03;2.83;;;;;;;;;;5070121;28;20048;-66
2022/11/05 08:37:22;;;;;;;6.72;2.78;;;;;;;;;;5069929;28;20049;-66
2022/11/05 08:39:52;;;;;;;8.50;3.00;;;;;;;;;;5029580;28;20045;-66
2022/11/05 08:42:22;;;;;;;5.65;2.50;;;;;;;;;;5029813;28;20060;-66
2022/11/05 08:44:52;;;;;;;7.60;2.33;;;;;;;;;;4981109;28;20065;-66
2022/11/05 08:47:24;;;;;;;6.78;3.03;;;;;;;;;;5029783;28;20052;-66
2022/11/05 08:49:54;;;;;;;6.25;2.75;;;;;;;;;;5013518;28;20057;-66
2022/11/05 08:52:23;;;;;;;5.22;2.65;;;;;;;;;;4970656;28;20053;-66
2022/11/05 08:54:54;;;;;;;7.38;3.13;;;;;;;;;;4971053;28;20388;-66
2022/11/05 08:57:24;;;;;;;7.68;2.92;;;;;;;;;;4970252;28;20066;-66
2022/11/05 08:59:54;;;;;;;5.28;2.65;;;;;;;;;;4971125;28;20074;-66
2022/11/05 09:02:24;;;;;;;6.57;2.95;;;;;;;;;;4932115;29;20067;-66
2022/11/05 09:04:54;;;;;;;5.35;2.55;;;;;;;;;;4941027;29;20107;-66
2022/11/05 09:07:24;;;;;;;8.50;2.80;;;;;;;;;;4951655;29;20062;-66
2022/11/05 09:09:54;;;;;;;6.82;3.00;;;;;;;;;;4951639;29;20095;-66
2022/11/05 09:12:24;;;;;;;10.52;2.70;;;;;;;;;;4951195;29;20062;-66
2022/11/05 09:14:55;;;;;;;6.72;2.67;;;;;;;;;;4951654;29;20431;-66
2022/11/05 09:17:25;;;;;;;7.30;2.42;;;;;;;;;;4960358;28;20059;-66
2022/11/05 09:19:55;;;;;;;7.35;2.50;;;;;;;;;;4970623;28;20436;-66
2022/11/05 09:22:25;;;;;;;7.40;3.03;;;;;;;;;;4970589;28;20518;-66
2022/11/05 09:24:55;;;;;;;4.72;2.50;;;;;;;;;;4970734;28;20157;-66
2022/11/05 09:27:25;;;;;;;6.88;3.30;;;;;;;;;;4970601;28;20051;-66
2022/11/05 09:29:55;;;;;;;4.75;2.25;;;;;;;;;;4997403;28;20512;-66
2022/11/05 09:32:25;;;;;;;11.75;2.70;;;;;;;;;;4976644;28;20057;-66
2022/11/05 09:34:55;;;;;;;7.82;3.30;;;;;;;;;;4989639;28;20506;-66
2022/11/05 09:37:28;;;;;;;8.85;3.35;;;;;;;;;;4953910;28;20411;-66
2022/11/05 09:39:58;;;;;;;7.68;3.25;;;;;;;;;;4979532;28;20466;-65
2022/11/05 09:42:44;;;;;;;8.77;3.53;;;;;;;;;;4989751;28;20050;-65
2022/11/05 09:45:24;;;;;;;9.77;3.08;;;;;;;;;;4989977;28;20050;-65
2022/11/05 09:48:03;;;;;;;10.23;2.63;;;;;;;;;;4950732;29;20055;-65
2022/11/05 09:50:39;;;;;;;10.13;3.03;;;;;;;;;;4960201;28;20062;-65
2022/11/05 09:53:16;;;;;;;6.45;2.95;;;;;;;;;;5009175;28;20058;-65
2022/11/05 09:55:50;;;;;;;5.97;2.42;;;;;;;;;;5009088;28;20054;-65
2022/11/05 09:58:37;;;;;;;9.43;2.80;;;;;;;;;;4993236;28;20065;-65
2022/11/05 10:01:14;;;;;;;6.75;3.05;;;;;;;;;;5009233;28;20065;-65
2022/11/05 10:03:50;;;;;;;8.60;2.88;;;;;;;;;;5009141;28;20061;-64
2022/11/05 10:06:24;;;;;;;11.30;3.00;;;;;;;;;;5009007;28;20065;-65
2022/11/05 10:09:06;;;;;;;6.13;2.83;;;;;;;;;;4958429;28;20061;-64
2022/11/05 10:11:49;;;;;;;6.38;2.78;;;;;;;;;;4996901;28;20073;-64
2022/11/05 10:14:39;;;;;;;6.55;2.78;;;;;;;;;;5035990;28;20052;-66
2022/11/05 10:17:23;;;;;;;8.73;2.58;;;;;;;;;;5032407;28;20053;-64
2022/11/05 10:19:59;;;;;;;7.32;2.42;;;;;;;;;;5032276;28;20049;-64
2022/11/05 10:22:30;;;;;;;7.20;2.75;;;;;;;;;;5032369;28;20053;-65
2022/11/05 10:25:00;;;;;;;6.22;2.83;;;;;;;;;;5026702;28;20600;-64
2022/11/05 10:27:35;;;;;;;8.02;2.90;;;;;;;;;;5012602;28;20066;-65
2022/11/05 10:30:06;;;;;;;6.82;2.42;;;;;;;;;;4964073;28;20162;-64
2022/11/05 10:32:41;;;;;;;7.80;3.03;;;;;;;;;;5009370;28;20468;-64
2022/11/05 10:35:17;;;;;;;6.63;3.00;;;;;;;;;;4992961;28;20174;-64
2022/11/05 10:37:49;;;;;;;5.10;2.15;;;;;;;;;;4993169;28;20053;-63
2022/11/05 10:40:39;;;;;;;8.07;2.70;;;;;;;;;;4994352;28;20058;-64
2022/11/05 10:43:12;;;;;;;3.97;1.88;;;;;;;;;;4973174;28;20057;-64
2022/11/05 10:46:03;;;;;;;3.95;1.45;;;;;;;;;;4960116;28;20058;-63
2022/11/05 10:48:39;;;;;;;4.03;1.50;;;;;;;;;;4992749;28;20069;-63
2022/11/05 10:51:13;;;;;;;3.05;1.60;;;;;;;;;;4996224;28;20502;-64
2022/11/05 10:53:55;;;;;;;3.30;1.10;;;;;;;;;;5015085;28;20064;-64
2022/11/05 10:56:35;;;;;;;3.65;1.38;;;;;;;;;;5036199;28;20060;-63
2022/11/05 10:59:21;;;;;;;5.78;1.23;;;;;;;;;;5011972;28;20529;-64
2022/11/05 11:02:20;;;;;;;2.80;1.05;;;;;;;;;;4979393;28;20057;-64
2022/11/05 11:04:57;;;;;;;2.50;1.10;;;;;;;;;;5011958;28;20065;-65
2022/11/05 11:07:27;;;;;;;3.78;0.85;;;;;;;;;;5012004;28;20064;-64
2022/11/05 11:09:57;;;;;;;3.25;1.30;;;;;;;;;;5011779;28;20046;-64
2022/11/05 11:12:36;;;;;;;3.40;1.60;;;;;;;;;;5012073;28;20053;-63
2022/11/05 11:15:36;;;;;;;2.55;1.10;;;;;;;;;;5011587;28;20058;-63
2022/11/05 11:18:26;;;;;;;3.97;1.40;;;;;;;;;;4956836;28;20426;-64
2022/11/05 11:21:18;;;;;;;3.67;1.15;;;;;;;;;;4982601;28;20046;-64
2022/11/05 11:24:05;;;;;;;2.42;0.98;;;;;;;;;;4944574;28;20439;-64
2022/11/05 11:26:38;;;;;;;3.90;1.88;;;;;;;;;;4977012;28;20148;-63
2022/11/05 11:29:29;;;;;;;5.05;1.73;;;;;;;;;;4989145;28;20058;-64
2022/11/05 11:32:00;;;;;;;11.30;4.60;;;;;;;;;;5051017;28;20563;-64
2022/11/05 11:34:34;;;;;;;5.22;3.45;;;;;;;;;;5051311;28;20056;-64
2022/11/05 11:37:08;;;;;;;3.38;1.23;;;;;;;;;;5051136;28;20053;-64
2022/11/05 11:39:51;;;;;;;2.92;1.15;;;;;;;;;;5051273;28;20501;-65
2022/11/05 11:42:46;;;;;;;2.03;1.00;;;;;;;;;;5017850;28;20524;-64
2022/11/05 11:45:30;;;;;;;7.40;1.38;;;;;;;;;;4978646;28;20062;-64
2022/11/05 11:48:05;;;;;;;4.78;1.23;;;;;;;;;;5011339;28;20065;-65
2022/11/05 11:50:38;;;;;;;3.40;1.00;;;;;;;;;;4994535;28;20487;-63
2022/11/05 11:53:20;;;;;;;4.82;1.20;;;;;;;;;;5010954;28;20069;-64
2022/11/05 11:55:58;;;;;;;4.57;0.90;;;;;;;;;;5044669;28;20045;-64
2022/11/05 11:58:47;;;;;;;3.60;1.17;;;;;;;;;;5034587;28;20148;-64
2022/11/05 12:01:34;;;;;;;2.42;1.02;;;;;;;;;;5050815;28;20041;-64
2022/11/05 12:04:13;;;;;;;2.70;1.13;;;;;;;;;;5017143;28;20507;-64
2022/11/05 12:06:52;;;;;;;2.40;0.98;;;;;;;;;;5050806;28;20048;-61
2022/11/05 12:09:30;;;;;;;2.50;0.93;;;;;;;;;;5001076;28;20056;-64
2022/11/05 12:12:07;;;;;;;2.88;0.93;;;;;;;;;;5050646;28;20507;-64
2022/11/05 12:14:53;;;;;;;4.57;1.00;;;;;;;;;;5001336;28;20060;-63
2022/11/05 12:17:35;;;;;;;6.07;1.20;;;;;;;;;;5050254;28;20056;-64
2022/11/05 12:20:37;;;;;;;2.38;0.50;;;;;;;;;;5000882;28;20063;-63
2022/11/05 12:23:30;;;;;;;3.67;1.33;;;;;;;;;;5099375;28;20059;-64
2022/11/05 12:26:14;;;;;;;6.60;2.33;;;;;;;;;;5010350;28;20502;-64
2022/11/05 12:29:05;;;;;;;3.35;1.77;;;;;;;;;;4978839;28;20092;-64
2022/11/05 12:32:10;;;;;;;4.57;0.95;;;;;;;;;;5009803;28;20530;-64
2022/11/05 12:34:59;;;;;;;2.65;1.50;;;;;;;;;;4993824;28;20057;-64
2022/11/05 12:37:32;;;;;;;2.17;1.00;;;;;;;;;;4990512;28;20050;-64
2022/11/05 12:40:12;;;;;;;3.00;1.00;;;;;;;;;;4958458;28;20430;-64
2022/11/05 12:43:04;;;;;;;3.88;1.00;;;;;;;;;;4958437;28;20062;-65
2022/11/05 12:45:52;;;;;;;2.33;0.75;;;;;;;;;;4990601;28;20038;-64
2022/11/05 12:49:11;;;;;;;2.65;0.80;;;;;;;;;;4974412;28;20062;-64
2022/11/05 12:51:56;;;;;;;17.55;6.90;;;;;;;;;;4974213;28;20046;-63
2022/11/05 12:54:31;;;;;;;;;;;;;;;;;;4942794;28;20057;-64
2022/11/05 12:57:03;;;;;;;1.85;0.80;;;;;;;;;;4990451;28;19928;-64
2022/11/05 12:59:39;;;;;;;2.90;0.90;;;;;;;;;;4958765;28;20062;-64
2022/11/05 13:02:33;;;;;;;1.45;0.82;;;;;;;;;;4978208;28;20070;-65
2022/11/05 13:05:33;;;;;;;1.60;0.80;;;;;;;;;;5049530;28;20428;-64
2022/11/05 13:08:42;;;;;;;2.53;1.17;;;;;;;;;;5049280;28;20065;-64
2022/11/05 13:11:18;;;;;;;2.15;0.80;;;;;;;;;;5009474;28;20054;-64
2022/11/05 13:14:18;;;;;;;3.97;1.35;;;;;;;;;;4977303;28;20050;-64
2022/11/05 13:17:02;;;;;;;2.50;1.10;;;;;;;;;;5036050;28;20063;-64
2022/11/05 13:19:47;;;;;;;4.18;1.63;;;;;;;;;;5069125;28;20041;-64
2022/11/05 13:22:59;;;;;;;2.50;1.20;;;;;;;;;;5019611;28;20052;-64
2022/11/05 13:25:38;;;;;;;1.77;0.98;;;;;;;;;;5049296;28;20064;-64
2022/11/05 13:28:49;;;;;;;2.22;0.98;;;;;;;;;;5049035;28;20059;-64
2022/11/05 13:31:26;;;;;;;2.92;1.30;;;;;;;;;;4976805;28;20073;-64
2022/11/05 13:34:02;;;;;;;3.25;0.98;;;;;;;;;;5009659;28;20054;-64
2022/11/05 13:39:54;;;;;;;1.40;0.73;;;;;;;;;;5009587;28;20046;-64
2022/11/05 13:42:46;;;;;;;3.75;1.45;;;;;;;;;;4990215;28;20094;-64
2022/11/05 13:45:45;;;;;;;3.25;0.95;;;;;;;;;;4978169;28;20406;-64
2022/11/05 13:48:36;;;;;;;2.15;1.00;;;;;;;;;;4903178;28;20395;-64
2022/11/05 13:51:25;;;;;;;1.92;0.95;;;;;;;;;;4974435;28;20042;-64
2022/11/05 13:54:10;;;;;;;3.25;1.00;;;;;;;;;;4957696;28;20072;-64
2022/11/05 13:56:55;;;;;;;2.00;1.00;;;;;;;;;;4974237;28;20043;-64
2022/11/05 13:59:45;;;;;;;4.25;1.08;;;;;;;;;;4903918;29;20071;-64
2022/11/05 14:02:27;;;;;;;9.10;4.28;;;;;;;;;;4925542;28;20059;-64
2022/11/05 14:05:00;;;;;;;2.85;0.93;;;;;;;;;;4942010;28;20431;-64
2022/11/05 14:07:37;;;;;;;3.65;1.85;;;;;;;;;;4984940;28;20082;-63
2022/11/05 14:10:20;;;;;;;2.75;1.30;;;;;;;;;;5012804;28;20058;-64
2022/11/05 14:12:54;;;;;;;3.35;1.02;;;;;;;;;;5012978;28;20058;-65
2022/11/05 14:15:29;;;;;;;1.30;0.90;;;;;;;;;;5012906;28;20057;-64
2022/11/05 14:18:01;;;;;;;1.85;1.40;;;;;;;;;;5013044;28;20058;-64
2022/11/05 14:20:31;;;;;;;4.20;1.05;;;;;;;;;;5053373;28;20079;-64
2022/11/05 14:23:23;;;;;;;2.35;1.08;;;;;;;;;;5072565;28;20083;-64
2022/11/05 14:25:55;;;;;;;2.67;1.05;;;;;;;;;;5012767;28;20053;-65
2022/11/05 14:28:35;;;;;;;1.73;0.80;;;;;;;;;;5012546;28;20427;-60
2022/11/05 14:31:22;;;;;;;1.80;0.88;;;;;;;;;;5012585;28;20061;-64
2022/11/05 14:34:13;;;;;;;2.17;1.05;;;;;;;;;;5012630;28;20089;-65
2022/11/05 14:36:45;;;;;;;3.15;1.10;;;;;;;;;;5026788;28;20068;-64
2022/11/05 14:39:20;;;;;;;5.85;2.17;;;;;;;;;;5012121;28;20061;-64
2022/11/05 14:41:56;;;;;;;1.95;0.82;;;;;;;;;;4995891;28;20050;-61
2022/11/05 14:44:28;;;;;;;4.22;1.33;;;;;;;;;;4964238;28;20187;-64
2022/11/05 14:47:07;;;;;;;3.47;1.23;;;;;;;;;;4979646;28;20049;-65
2022/11/05 14:49:51;;;;;;;1.92;1.15;;;;;;;;;;4963899;28;20065;-63
2022/11/05 14:52:22;;;;;;;2.00;0.98;;;;;;;;;;4972727;28;20047;-65
2022/11/05 14:54:56;;;;;;;2.78;0.77;;;;;;;;;;4972359;28;20098;-64
2022/11/05 14:57:41;;;;;;;2.85;1.40;;;;;;;;;;4992231;28;20502;-63
2022/11/05 15:00:28;;;;;;;2.67;1.30;;;;;;;;;;4976290;28;20454;-64
2022/11/05 15:03:01;;;;;;;4.10;2.28;;;;;;;;;;5001638;28;20054;-64
2022/11/05 15:05:34;;;;;;;5.10;1.10;;;;;;;;;;4992383;28;20058;-64
2022/11/05 15:08:31;;;;;;;3.00;1.00;;;;;;;;;;4992395;28;20158;-64
2022/11/05 15:11:28;;;;;;;3.50;2.17;;;;;;;;;;4991832;28;20073;-65
2022/11/05 15:14:17;;;;;;;2.97;1.42;;;;;;;;;;4972607;28;20458;-64
2022/11/05 15:17:07;;;;;;;4.70;2.20;;;;;;;;;;4949239;28;20050;-63
2022/11/05 15:19:41;;;;;;;4.95;1.52;;;;;;;;;;4992090;28;20069;-63
2022/11/05 15:22:31;;;;;;;2.75;1.42;;;;;;;;;;4975684;28;20050;-67
2022/11/05 15:25:04;;;;;;;1.63;0.80;;;;;;;;;;4992216;28;20167;-64
2022/11/05 15:28:13;;;;;;;1.63;0.88;;;;;;;;;;4992068;28;20072;-64
2022/11/05 15:31:05;;;;;;;1.48;0.73;;;;;;;;;;4959574;28;20047;-66
2022/11/05 15:33:35;;;;;;;1.70;0.98;;;;;;;;;;4992051;28;20518;-64
2022/11/05 15:36:17;;;;;;;2.28;1.08;;;;;;;;;;5009559;28;20077;-64
2022/11/05 15:38:47;;;;;;;3.42;0.90;;;;;;;;;;5011298;28;20053;-64
2022/11/05 15:41:38;;;;;;;1.75;0.77;;;;;;;;;;5011282;28;20058;-64
2022/11/05 15:44:29;;;;;;;2.22;0.73;;;;;;;;;;4995395;28;20070;-64
2022/11/05 15:47:11;;;;;;;2.72;1.10;;;;;;;;;;5011502;28;20041;-65
2022/11/05 15:49:44;;;;;;;2.05;0.90;;;;;;;;;;5050786;28;20432;-64
2022/11/05 15:52:18;;;;;;;3.13;0.93;;;;;;;;;;5068285;28;20044;-65
2022/11/05 15:55:11;;;;;;;2.85;1.50;;;;;;;;;;5113556;28;20048;-64
2022/11/05 15:57:47;;;;;;;3.55;0.90;;;;;;;;;;4994763;28;20054;-64
2022/11/05 16:00:22;;;;;;;2.25;1.00;;;;;;;;;;5011042;28;20061;-64
2022/11/05 16:03:14;;;;;;;1.33;0.82;;;;;;;;;;5010934;28;20065;-64
2022/11/05 16:05:47;;;;;;;2.53;0.85;;;;;;;;;;4978459;28;20086;-64
2022/11/05 16:08:23;;;;;;;1.15;0.70;;;;;;;;;;5010773;28;20100;-63
2022/11/05 16:10:58;;;;;;;3.38;1.95;;;;;;;;;;5010948;28;20045;-63
2022/11/05 16:13:33;;;;;;;5.65;2.33;;;;;;;;;;4978261;28;20057;-63
2022/11/05 16:16:24;;;;;;;2.75;1.00;;;;;;;;;;5010668;28;20045;-64
2022/11/05 16:18:54;;;;;;;2.58;1.15;;;;;;;;;;5010936;28;20635;-63
2022/11/05 16:21:24;;;;;;;3.58;1.23;;;;;;;;;;5010597;28;20079;-64
2022/11/05 16:23:57;;;;;;;1.40;0.75;;;;;;;;;;5010881;28;20515;-63
2022/11/05 16:26:33;;;;;;;2.38;0.90;;;;;;;;;;5010422;28;20057;-65
2022/11/05 16:29:31;;;;;;;2.80;0.82;;;;;;;;;;5010588;28;20494;-65